Terminal Aerodrome Forecast
Issued by NWS

Current Version | Previous Version | Graphics & Text | Print | Product List | Glossary On
Versions: 1 2 3 4 5 6 7 8 9 10 11 12 13 14 15 16 17 18
759
FTUS41 KILN 161351 AAA
TAFLCK
TAF AMD
KLCK 161351Z 1614/1712 26008KT P6SM OVC020
     FM161500 26007KT P6SM SCT018 OVC080
     FM162200 27008KT P6SM BKN022
     FM170300 24003KT P6SM OVC015=

USA.gov is the U.S. government's official web portal to all federal, state and local government web resources and services.